Time,TemperatureF,DewpointF,PressureIn,WindDirection,WindDirectionDegrees,WindSpeedMPH,WindSpeedGustMPH,Humidity,HourlyPrecipIn,Conditions,Clouds,dailyrainin,SoftwareType,DateUTC
2013-06-14 01:10:00,63.0,59.0,-100.00,ESE,120,6.0,7.0,89,-99.99,,,-99.99,,2013-06-14 06:10:00,
2013-06-14 01:33:00,63.0,59.0,-100.00,ESE,120,6.0,7.0,89,-99.99,,,-99.99,,2013-06-14 06:33:00,
2013-06-14 01:43:00,63.0,59.0,-100.00,ESE,120,6.0,7.0,89,-99.99,,,-99.99,,2013-06-14 06:43:00,
2013-06-14 01:52:00,63.0,59.0,-100.00,ESE,120,6.0,7.0,89,-99.99,,,-99.99,,2013-06-14 06:52:00,
2013-06-14 02:02:00,63.0,59.0,-100.00,ESE,120,6.0,7.0,89,-99.99,,,-99.99,,2013-06-14 07:02:00,
2013-06-14 02:33:00,63.0,59.0,-100.00,SE,130,6.0,8.0,89,-99.99,,,-99.99,,2013-06-14 07:33:00,
2013-06-14 02:43:00,63.0,59.0,-100.00,SE,130,6.0,8.0,89,-99.99,,,-99.99,,2013-06-14 07:43:00,
2013-06-14 02:53:00,63.0,59.0,-100.00,SE,130,6.0,8.0,89,-99.99,,,-99.99,,2013-06-14 07:53:00,
2013-06-14 03:02:00,63.0,59.0,-100.00,SE,130,6.0,8.0,89,-99.99,,,-99.99,,2013-06-14 08:02:00,
2013-06-14 03:10:00,63.0,59.0,-100.00,SE,135,7.0,9.0,88,-99.99,,,-99.99,,2013-06-14 08:10:00,
2013-06-14 03:33:00,63.0,59.0,-100.00,SE,135,7.0,9.0,88,-99.99,,,-99.99,,2013-06-14 08:33:00,
2013-06-14 03:43:00,63.0,59.0,-100.00,SE,135,7.0,9.0,88,-99.99,,,-99.99,,2013-06-14 08:43:00,
2013-06-14 03:53:00,63.0,59.0,-100.00,SE,135,7.0,9.0,88,-99.99,,,-99.99,,2013-06-14 08:53:00,
2013-06-14 04:02:00,63.0,59.0,-100.00,SE,135,7.0,9.0,88,-99.99,,,-99.99,,2013-06-14 09:02:00,
2013-06-14 04:10:00,63.0,60.0,-100.00,SE,130,7.0,8.0,91,-99.99,,,-99.99,,2013-06-14 09:10:00,
2013-06-14 04:33:00,63.0,60.0,-100.00,SE,130,7.0,8.0,91,-99.99,,,-99.99,,2013-06-14 09:33:00,
2013-06-14 04:43:00,63.0,60.0,-100.00,SE,130,7.0,8.0,91,-99.99,,,-99.99,,2013-06-14 09:43:00,
2013-06-14 04:53:00,63.0,60.0,-100.00,SE,130,7.0,8.0,91,-99.99,,,-99.99,,2013-06-14 09:53:00,
2013-06-14 05:01:00,63.0,60.0,-100.00,SE,130,7.0,8.0,91,-99.99,,,-99.99,,2013-06-14 10:01:00,
2013-06-14 05:10:00,62.0,60.0,-100.00,SE,140,7.0,9.0,92,-99.99,,,-99.99,,2013-06-14 10:10:00,
2013-06-14 05:34:00,62.0,60.0,-100.00,SE,140,7.0,9.0,92,-99.99,,,-99.99,,2013-06-14 10:34:00,
2013-06-14 05:44:00,62.0,60.0,-100.00,SE,140,7.0,9.0,92,-99.99,,,-99.99,,2013-06-14 10:44:00,
2013-06-14 05:52:00,62.0,60.0,-100.00,SE,140,7.0,9.0,92,-99.99,,,-99.99,,2013-06-14 10:52:00,
2013-06-14 06:02:00,62.0,60.0,-100.00,SE,140,7.0,9.0,92,-99.99,,,-99.99,,2013-06-14 11:02:00,
2013-06-14 06:33:00,61.0,60.0,-100.00,ESE,110,4.0,5.0,97,-99.99,,,-99.99,,2013-06-14 11:33:00,
2013-06-14 06:43:00,61.0,60.0,-100.00,ESE,110,4.0,5.0,97,-99.99,,,-99.99,,2013-06-14 11:43:00,
2013-06-14 06:52:00,61.0,60.0,-100.00,ESE,110,4.0,5.0,97,-99.99,,,-99.99,,2013-06-14 11:52:00,
2013-06-14 07:02:00,61.0,60.0,-100.00,ESE,110,4.0,5.0,97,-99.99,,,-99.99,,2013-06-14 12:02:00,
2013-06-14 07:33:00,62.0,61.0,-100.00,ESE,120,5.0,6.0,99,-99.99,,,-99.99,,2013-06-14 12:33:00,
2013-06-14 07:43:00,62.0,61.0,-100.00,ESE,120,5.0,6.0,99,-99.99,,,-99.99,,2013-06-14 12:43:00,
2013-06-14 07:52:00,62.0,61.0,-100.00,ESE,120,5.0,6.0,99,-99.99,,,-99.99,,2013-06-14 12:52:00,
2013-06-14 08:02:00,62.0,61.0,-100.00,ESE,120,5.0,6.0,99,-99.99,,,-99.99,,2013-06-14 13:02:00,
2013-06-14 08:33:00,64.0,63.0,-100.00,SE,140,8.0,11.0,97,-99.99,,,-99.99,,2013-06-14 13:33:00,
2013-06-14 08:43:00,64.0,63.0,-100.00,SE,140,8.0,11.0,97,-99.99,,,-99.99,,2013-06-14 13:43:00,
2013-06-14 08:53:00,64.0,63.0,-100.00,SE,140,8.0,11.0,97,-99.99,,,-99.99,,2013-06-14 13:53:00,
2013-06-14 09:02:00,64.0,63.0,-100.00,SE,140,8.0,11.0,97,-99.99,,,-99.99,,2013-06-14 14:02:00,
2013-06-14 09:34:00,69.0,64.0,-100.00,SSE,155,12.0,14.0,83,-99.99,,,-99.99,,2013-06-14 14:34:00,
2013-06-14 09:43:00,69.0,64.0,-100.00,SSE,155,12.0,14.0,83,-99.99,,,-99.99,,2013-06-14 14:43:00,
2013-06-14 09:52:00,69.0,64.0,-100.00,SSE,155,12.0,14.0,83,-99.99,,,-99.99,,2013-06-14 14:52:00,
2013-06-14 10:01:00,69.0,64.0,-100.00,SSE,155,12.0,14.0,83,-99.99,,,-99.99,,2013-06-14 15:01:00,
2013-06-14 10:33:00,69.0,63.0,-100.00,SSE,165,11.0,12.0,82,-99.99,,,-99.99,,2013-06-14 15:33:00,
2013-06-14 10:44:00,69.0,63.0,-100.00,SSE,165,11.0,12.0,82,-99.99,,,-99.99,,2013-06-14 15:44:00,
2013-06-14 10:53:00,69.0,63.0,-100.00,SSE,165,11.0,12.0,82,-99.99,,,-99.99,,2013-06-14 15:53:00,
2013-06-14 11:01:00,69.0,63.0,-100.00,SSE,165,11.0,12.0,82,-99.99,,,-99.99,,2013-06-14 16:01:00,
2013-06-14 11:33:00,70.0,64.0,-100.00,SE,125,16.0,19.0,82,-99.99,,,-99.99,,2013-06-14 16:33:00,
2013-06-14 11:43:00,70.0,64.0,-100.00,SE,125,16.0,19.0,82,-99.99,,,-99.99,,2013-06-14 16:43:00,
2013-06-14 11:53:00,70.0,64.0,-100.00,SE,125,16.0,19.0,82,-99.99,,,-99.99,,2013-06-14 16:53:00,
2013-06-14 12:02:00,70.0,64.0,-100.00,SE,125,16.0,19.0,82,-99.99,,,-99.99,,2013-06-14 17:02:00,
2013-06-14 12:34:00,73.0,64.0,-100.00,SE,135,14.0,17.0,72,-99.99,,,-99.99,,2013-06-14 17:34:00,
2013-06-14 12:43:00,73.0,64.0,-100.00,SE,135,14.0,17.0,72,-99.99,,,-99.99,,2013-06-14 17:43:00,
2013-06-14 12:53:00,73.0,64.0,-100.00,SE,135,14.0,17.0,72,-99.99,,,-99.99,,2013-06-14 17:53:00,
2013-06-14 13:02:00,73.0,64.0,-100.00,SE,135,14.0,17.0,72,-99.99,,,-99.99,,2013-06-14 18:02:00,
2013-06-14 13:10:00,74.0,63.0,-100.00,SE,140,16.0,17.0,68,-99.99,,,-99.99,,2013-06-14 18:10:00,
2013-06-14 13:33:00,74.0,63.0,-100.00,SE,140,16.0,17.0,68,-99.99,,,-99.99,,2013-06-14 18:33:00,
2013-06-14 13:43:00,74.0,63.0,-100.00,SE,140,16.0,17.0,68,-99.99,,,-99.99,,2013-06-14 18:43:00,
2013-06-14 13:52:00,74.0,63.0,-100.00,SE,140,16.0,17.0,68,-99.99,,,-99.99,,2013-06-14 18:52:00,
2013-06-14 14:01:00,74.0,63.0,-100.00,SE,140,16.0,17.0,68,-99.99,,,-99.99,,2013-06-14 19:01:00,
2013-06-14 14:33:00,78.0,64.0,-100.00,SSE,160,20.0,24.0,63,-99.99,,,-99.99,,2013-06-14 19:33:00,
2013-06-14 14:43:00,78.0,64.0,-100.00,SSE,160,20.0,24.0,63,-99.99,,,-99.99,,2013-06-14 19:43:00,
2013-06-14 14:53:00,78.0,64.0,-100.00,SSE,160,20.0,24.0,63,-99.99,,,-99.99,,2013-06-14 19:53:00,
2013-06-14 15:01:00,78.0,64.0,-100.00,SSE,160,20.0,24.0,63,-99.99,,,-99.99,,2013-06-14 20:01:00,
2013-06-14 15:10:00,76.0,62.0,-100.00,SE,135,9.0,11.0,62,-99.99,,,-99.99,,2013-06-14 20:10:00,
2013-06-14 15:33:00,76.0,62.0,-100.00,SE,135,9.0,11.0,62,-99.99,,,-99.99,,2013-06-14 20:33:00,
2013-06-14 15:43:00,76.0,62.0,-100.00,SE,135,9.0,11.0,62,-99.99,,,-99.99,,2013-06-14 20:43:00,
2013-06-14 15:53:00,76.0,62.0,-100.00,SE,135,9.0,11.0,62,-99.99,,,-99.99,,2013-06-14 20:53:00,
2013-06-14 16:02:00,76.0,62.0,-100.00,SE,135,9.0,11.0,62,-99.99,,,-99.99,,2013-06-14 21:02:00,
2013-06-14 16:34:00,79.0,64.0,-100.00,SSE,160,17.0,21.0,60,-99.99,,,-99.99,,2013-06-14 21:34:00,
2013-06-14 16:43:00,79.0,64.0,-100.00,SSE,160,17.0,21.0,60,-99.99,,,-99.99,,2013-06-14 21:43:00,
2013-06-14 16:52:00,79.0,64.0,-100.00,SSE,160,17.0,21.0,60,-99.99,,,-99.99,,2013-06-14 21:52:00,
2013-06-14 17:01:00,79.0,64.0,-100.00,SSE,160,17.0,21.0,60,-99.99,,,-99.99,,2013-06-14 22:01:00,
2013-06-14 18:33:00,77.0,65.0,-100.00,SE,145,14.0,17.0,66,-99.99,,,-99.99,,2013-06-14 23:33:00,
2013-06-14 18:43:00,77.0,65.0,-100.00,SE,145,14.0,17.0,66,-99.99,,,-99.99,,2013-06-14 23:43:00,
2013-06-14 18:52:00,77.0,65.0,-100.00,SE,145,14.0,17.0,66,-99.99,,,-99.99,,2013-06-14 23:52:00,
2013-06-14 19:01:00,77.0,65.0,-100.00,SE,145,14.0,17.0,66,-99.99,,,-99.99,,2013-06-15 00:01:00,
2013-06-14 19:10:00,76.0,66.0,-100.00,SE,135,12.0,16.0,70,-99.99,,,-99.99,,2013-06-15 00:10:00,
2013-06-14 19:34:00,76.0,66.0,-100.00,SE,135,12.0,16.0,70,-99.99,,,-99.99,,2013-06-15 00:34:00,
2013-06-14 19:43:00,76.0,66.0,-100.00,SE,135,12.0,16.0,70,-99.99,,,-99.99,,2013-06-15 00:43:00,
2013-06-14 19:53:00,76.0,66.0,-100.00,SE,135,12.0,16.0,70,-99.99,,,-99.99,,2013-06-15 00:53:00,
2013-06-14 20:01:00,76.0,66.0,-100.00,SE,135,12.0,16.0,70,-99.99,,,-99.99,,2013-06-15 01:01:00,
2013-06-14 20:33:00,73.0,69.0,-100.00,South,185,8.0,9.0,88,-99.99,,,-99.99,,2013-06-15 01:33:00,
2013-06-14 20:43:00,73.0,69.0,-100.00,South,185,8.0,9.0,88,-99.99,,,-99.99,,2013-06-15 01:43:00,
2013-06-14 20:54:00,73.0,69.0,-100.00,South,185,8.0,9.0,88,-99.99,,,-99.99,,2013-06-15 01:54:00,
2013-06-14 21:02:00,73.0,69.0,-100.00,South,185,8.0,9.0,88,-99.99,,,-99.99,,2013-06-15 02:02:00,
2013-06-14 21:34:00,71.0,70.0,-100.00,NW,310,1.0,1.0,97,-99.99,,,-99.99,,2013-06-15 02:34:00,
2013-06-14 21:43:00,71.0,70.0,-100.00,NW,310,1.0,1.0,97,-99.99,,,-99.99,,2013-06-15 02:43:00,
2013-06-14 21:53:00,71.0,70.0,-100.00,NW,310,1.0,1.0,97,-99.99,,,-99.99,,2013-06-15 02:53:00,
2013-06-14 22:01:00,71.0,70.0,-100.00,NW,310,1.0,1.0,97,-99.99,,,-99.99,,2013-06-15 03:01:00,
2013-06-14 22:32:00,70.0,70.0,-100.00,SW,215,2.0,2.0,99,-99.99,,,-99.99,,2013-06-15 03:32:00,
2013-06-14 22:44:00,70.0,70.0,-100.00,SW,215,2.0,2.0,99,-99.99,,,-99.99,,2013-06-15 03:44:00,
2013-06-14 22:53:00,70.0,70.0,-100.00,SW,215,2.0,2.0,99,-99.99,,,-99.99,,2013-06-15 03:53:00,
2013-06-14 23:02:00,70.0,70.0,-100.00,SW,215,2.0,2.0,99,-99.99,,,-99.99,,2013-06-15 04:02:00,
2013-06-14 23:34:00,67.0,67.0,-100.00,SSE,155,1.0,1.0,99,-99.99,,,-99.99,,2013-06-15 04:34:00,
2013-06-14 23:43:00,67.0,67.0,-100.00,SSE,155,1.0,1.0,99,-99.99,,,-99.99,,2013-06-15 04:43:00,
2013-06-14 23:54:00,67.0,67.0,-100.00,SSE,155,1.0,1.0,99,-99.99,,,-99.99,,2013-06-15 04:54:00,